sensor_id;sensor_type;location;lat;lon;timestamp;pressure;altitude;pressure_sealevel;temperature;humidity
48964;BME280;34776;48.180;16.420;2023-05-25T00:01:03;100223.53;;;14.50;69.53
48964;BME280;34776;48.180;16.420;2023-05-25T00:03:29;100213.91;;;14.48;69.35
48964;BME280;34776;48.180;16.420;2023-05-25T00:05:55;100226.50;;;14.46;69.35
48964;BME280;34776;48.180;16.420;2023-05-25T00:08:22;100224.75;;;14.45;69.36
48964;BME280;34776;48.180;16.420;2023-05-25T00:10:47;100227.63;;;14.41;69.43
48964;BME280;34776;48.180;16.420;2023-05-25T00:13:13;100231.44;;;14.37;69.72
48964;BME280;34776;48.180;16.420;2023-05-25T00:15:38;100237.75;;;14.36;69.73
48964;BME280;34776;48.180;16.420;2023-05-25T00:18:03;100230.69;;;14.35;70.00
48964;BME280;34776;48.180;16.420;2023-05-25T00:20:29;100232.41;;;14.36;70.16
48964;BME280;34776;48.180;16.420;2023-05-25T00:22:54;100219.97;;;14.35;70.30
48964;BME280;34776;48.180;16.420;2023-05-25T00:25:20;100228.97;;;14.34;70.26
48964;BME280;34776;48.180;16.420;2023-05-25T00:27:46;100228.47;;;14.28;70.97
48964;BME280;34776;48.180;16.420;2023-05-25T00:30:11;100240.03;;;14.28;70.77
48964;BME280;34776;48.180;16.420;2023-05-25T00:32:36;100231.13;;;14.28;70.61
48964;BME280;34776;48.180;16.420;2023-05-25T00:35:02;100227.69;;;14.26;70.89
48964;BME280;34776;48.180;16.420;2023-05-25T00:37:27;100227.81;;;14.24;71.01
48964;BME280;34776;48.180;16.420;2023-05-25T00:39:53;100227.88;;;14.23;70.69
48964;BME280;34776;48.180;16.420;2023-05-25T00:42:18;100231.53;;;14.21;70.65
48964;BME280;34776;48.180;16.420;2023-05-25T00:44:44;100239.63;;;14.20;70.71
48964;BME280;34776;48.180;16.420;2023-05-25T00:47:10;100238.09;;;14.16;70.68
48964;BME280;34776;48.180;16.420;2023-05-25T00:49:36;100243.72;;;14.11;70.82
48964;BME280;34776;48.180;16.420;2023-05-25T00:52:02;100240.28;;;14.09;70.79
48964;BME280;34776;48.180;16.420;2023-05-25T00:54:27;100247.41;;;14.09;70.56
48964;BME280;34776;48.180;16.420;2023-05-25T00:56:58;100243.97;;;14.07;70.45
48964;BME280;34776;48.180;16.420;2023-05-25T00:59:41;100245.78;;;14.06;70.81
48964;BME280;34776;48.180;16.420;2023-05-25T01:02:09;100240.50;;;14.05;70.44
48964;BME280;34776;48.180;16.420;2023-05-25T01:04:52;100247.00;;;14.00;71.08
48964;BME280;34776;48.180;16.420;2023-05-25T01:07:22;100237.47;;;13.96;70.72
48964;BME280;34776;48.180;16.420;2023-05-25T01:09:53;100234.94;;;13.93;70.80
48964;BME280;34776;48.180;16.420;2023-05-25T01:12:21;100237.81;;;13.90;70.73
48964;BME280;34776;48.180;16.420;2023-05-25T01:14:48;100237.03;;;13.88;70.94
48964;BME280;34776;48.180;16.420;2023-05-25T01:17:14;100236.28;;;13.86;70.70
48964;BME280;34776;48.180;16.420;2023-05-25T01:19:40;100240.66;;;13.87;70.89
48964;BME280;34776;48.180;16.420;2023-05-25T01:22:18;100241.63;;;13.86;70.93
48964;BME280;34776;48.180;16.420;2023-05-25T01:24:52;100245.22;;;13.85;70.73
48964;BME280;34776;48.180;16.420;2023-05-25T01:27:26;100237.22;;;13.85;70.63
48964;BME280;34776;48.180;16.420;2023-05-25T01:29:58;100235.50;;;13.84;70.50
48964;BME280;34776;48.180;16.420;2023-05-25T01:32:23;100233.75;;;13.83;70.69
48964;BME280;34776;48.180;16.420;2023-05-25T01:34:51;100237.41;;;13.82;70.44
48964;BME280;34776;48.180;16.420;2023-05-25T01:37:18;100239.97;;;13.84;70.51
48964;BME280;34776;48.180;16.420;2023-05-25T01:39:44;100243.50;;;13.84;70.23
48964;BME280;34776;48.180;16.420;2023-05-25T01:42:09;100244.44;;;13.83;70.54
48964;BME280;34776;48.180;16.420;2023-05-25T01:44:36;100246.34;;;13.81;70.49
48964;BME280;34776;48.180;16.420;2023-05-25T01:47:09;100243.75;;;13.79;70.44
48964;BME280;34776;48.180;16.420;2023-05-25T01:50:37;100243.75;;;13.79;71.11
48964;BME280;34776;48.180;16.420;2023-05-25T01:52:52;100237.75;;;13.76;71.12
48964;BME280;34776;48.180;16.420;2023-05-25T01:55:19;100242.91;;;13.79;70.66
48964;BME280;34776;48.180;16.420;2023-05-25T01:57:49;100243.88;;;13.78;70.65
48964;BME280;34776;48.180;16.420;2023-05-25T02:00:17;100238.69;;;13.75;70.72
48964;BME280;34776;48.180;16.420;2023-05-25T02:02:45;100249.38;;;13.75;70.79
48964;BME280;34776;48.180;16.420;2023-05-25T02:05:11;100233.47;;;13.73;70.94
48964;BME280;34776;48.180;16.420;2023-05-25T02:07:37;100231.78;;;13.71;70.83
48964;BME280;34776;48.180;16.420;2023-05-25T02:10:02;100238.09;;;13.70;70.91
48964;BME280;34776;48.180;16.420;2023-05-25T02:12:28;100245.16;;;13.71;70.72
48964;BME280;34776;48.180;16.420;2023-05-25T02:14:53;100244.38;;;13.69;70.99
48964;BME280;34776;48.180;16.420;2023-05-25T02:17:19;100252.50;;;13.67;70.78
48964;BME280;34776;48.180;16.420;2023-05-25T02:19:45;100247.03;;;13.69;70.74
48964;BME280;34776;48.180;16.420;2023-05-25T02:22:13;100247.03;;;13.69;70.69
48964;BME280;34776;48.180;16.420;2023-05-25T02:24:38;100255.84;;;13.71;70.77
48964;BME280;34776;48.180;16.420;2023-05-25T02:27:05;100253.28;;;13.69;70.91
48964;BME280;34776;48.180;16.420;2023-05-25T02:29:30;100253.28;;;13.69;70.72
48964;BME280;34776;48.180;16.420;2023-05-25T02:31:56;100257.72;;;13.69;70.80
48964;BME280;34776;48.180;16.420;2023-05-25T02:34:21;100261.38;;;13.68;71.11
48964;BME280;34776;48.180;16.420;2023-05-25T02:36:46;100258.78;;;13.66;71.16
48964;BME280;34776;48.180;16.420;2023-05-25T02:39:12;100263.25;;;13.66;71.16
48964;BME280;34776;48.180;16.420;2023-05-25T02:41:38;100273.09;;;13.65;71.25
48964;BME280;34776;48.180;16.420;2023-05-25T02:44:03;100275.84;;;13.64;71.13
48964;BME280;34776;48.180;16.420;2023-05-25T02:46:29;100275.00;;;13.63;71.32
48964;BME280;34776;48.180;16.420;2023-05-25T02:48:54;100259.97;;;13.60;71.11
48964;BME280;34776;48.180;16.420;2023-05-25T02:51:19;100270.66;;;13.60;71.33
48964;BME280;34776;48.180;16.420;2023-05-25T02:53:45;100276.97;;;13.59;71.12
48964;BME280;34776;48.180;16.420;2023-05-25T02:56:10;100286.69;;;13.60;70.86
48964;BME280;34776;48.180;16.420;2023-05-25T02:58:36;100282.22;;;13.61;71.01
48964;BME280;34776;48.180;16.420;2023-05-25T03:01:02;100279.63;;;13.59;71.14
48964;BME280;34776;48.180;16.420;2023-05-25T03:03:29;100287.56;;;13.61;70.57
48964;BME280;34776;48.180;16.420;2023-05-25T03:05:55;100279.63;;;13.59;70.85
48964;BME280;34776;48.180;16.420;2023-05-25T03:08:21;100283.22;;;13.58;70.84
48964;BME280;34776;48.180;16.420;2023-05-25T03:10:46;100288.56;;;13.58;70.60
48964;BME280;34776;48.180;16.420;2023-05-25T03:13:12;100288.41;;;13.62;70.65
48964;BME280;34776;48.180;16.420;2023-05-25T03:15:37;100290.13;;;13.63;70.69
48964;BME280;34776;48.180;16.420;2023-05-25T03:18:04;100289.25;;;13.62;70.76
48964;BME280;34776;48.180;16.420;2023-05-25T03:20:30;100286.69;;;13.60;70.65
48964;BME280;34776;48.180;16.420;2023-05-25T03:22:56;100284.78;;;13.63;70.73
48964;BME280;34776;48.180;16.420;2023-05-25T03:25:22;100289.00;;;13.67;70.46
48964;BME280;34776;48.180;16.420;2023-05-25T03:27:50;100288.06;;;13.68;70.67
48964;BME280;34776;48.180;16.420;2023-05-25T03:30:16;100283.66;;;13.67;70.44
48964;BME280;34776;48.180;16.420;2023-05-25T03:32:41;100282.72;;;13.68;70.34
48964;BME280;34776;48.180;16.420;2023-05-25T03:35:07;100284.53;;;13.67;70.38
48964;BME280;34776;48.180;16.420;2023-05-25T03:37:32;100287.88;;;13.71;70.27
48964;BME280;34776;48.180;16.420;2023-05-25T03:39:57;100285.81;;;13.76;69.97
48964;BME280;34776;48.180;16.420;2023-05-25T03:42:23;100296.31;;;13.79;70.22
48964;BME280;34776;48.180;16.420;2023-05-25T03:44:48;100295.28;;;13.81;70.37
48964;BME280;34776;48.180;16.420;2023-05-25T03:47:13;100304.94;;;13.84;69.90
48964;BME280;34776;48.180;16.420;2023-05-25T03:49:39;100298.66;;;13.85;69.85
48964;BME280;34776;48.180;16.420;2023-05-25T03:52:04;100298.38;;;13.90;70.02
48964;BME280;34776;48.180;16.420;2023-05-25T03:54:30;100305.28;;;13.94;69.80
48964;BME280;34776;48.180;16.420;2023-05-25T03:56:56;100304.25;;;13.96;69.99
48964;BME280;34776;48.180;16.420;2023-05-25T03:59:22;100305.03;;;13.98;69.92
48964;BME280;34776;48.180;16.420;2023-05-25T04:01:49;100305.97;;;13.97;69.84
48964;BME280;34776;48.180;16.420;2023-05-25T04:04:14;100307.31;;;14.05;69.45
48964;BME280;34776;48.180;16.420;2023-05-25T04:06:40;100301.63;;;14.11;69.30
48964;BME280;34776;48.180;16.420;2023-05-25T04:09:06;100299.56;;;14.16;69.17
48964;BME280;34776;48.180;16.420;2023-05-25T04:11:32;100295.91;;;14.17;69.01
48964;BME280;34776;48.180;16.420;2023-05-25T04:13:57;100294.91;;;14.19;68.95
48964;BME280;34776;48.180;16.420;2023-05-25T04:16:24;100300.91;;;14.23;68.71
48964;BME280;34776;48.180;16.420;2023-05-25T04:18:50;100307.22;;;14.22;68.77
48964;BME280;34776;48.180;16.420;2023-05-25T04:21:15;100297.28;;;14.24;68.60
48964;BME280;34776;48.180;16.420;2023-05-25T04:23:41;100306.84;;;14.28;68.43
48964;BME280;34776;48.180;16.420;2023-05-25T04:26:07;100300.53;;;14.29;68.05
48964;BME280;34776;48.180;16.420;2023-05-25T04:28:34;100296.75;;;14.33;68.04
48964;BME280;34776;48.180;16.420;2023-05-25T04:31:01;100304.41;;;14.39;67.80
48964;BME280;34776;48.180;16.420;2023-05-25T04:33:28;100298.59;;;14.47;67.48
48964;BME280;34776;48.180;16.420;2023-05-25T04:35:54;100308.31;;;14.64;67.27
48964;BME280;34776;48.180;16.420;2023-05-25T04:38:23;100309.31;;;15.06;66.33
48964;BME280;34776;48.180;16.420;2023-05-25T04:40:49;100310.34;;;15.32;65.44
48964;BME280;34776;48.180;16.420;2023-05-25T04:43:14;100305.97;;;15.31;64.90
48964;BME280;34776;48.180;16.420;2023-05-25T04:45:45;100315.06;;;15.14;64.54
48964;BME280;34776;48.180;16.420;2023-05-25T04:48:11;100312.38;;;15.00;64.89
48964;BME280;34776;48.180;16.420;2023-05-25T04:50:40;100313.44;;;14.97;65.29
48964;BME280;34776;48.180;16.420;2023-05-25T04:53:06;100314.09;;;15.01;65.20
48964;BME280;34776;48.180;16.420;2023-05-25T04:55:31;100312.38;;;15.00;64.98
48964;BME280;34776;48.180;16.420;2023-05-25T04:57:56;100324.78;;;15.01;64.61
48964;BME280;34776;48.180;16.420;2023-05-25T05:00:23;100319.44;;;15.01;64.91
48964;BME280;34776;48.180;16.420;2023-05-25T05:02:49;100323.84;;;15.02;64.49
48964;BME280;34776;48.180;16.420;2023-05-25T05:05:15;100328.91;;;15.07;64.38
48964;BME280;34776;48.180;16.420;2023-05-25T05:12:51;100331.69;;;15.19;63.83
48964;BME280;34776;48.180;16.420;2023-05-25T05:15:17;100336.09;;;15.20;63.33
48964;BME280;34776;48.180;16.420;2023-05-25T05:17:42;100328.44;;;15.29;63.29
48964;BME280;34776;48.180;16.420;2023-05-25T05:20:08;100329.56;;;15.39;63.20
48964;BME280;34776;48.180;16.420;2023-05-25T05:22:33;100326.72;;;15.42;63.08
48964;BME280;34776;48.180;16.420;2023-05-25T05:24:59;100329.94;;;15.47;63.11
48964;BME280;34776;48.180;16.420;2023-05-25T05:27:24;100339.50;;;15.51;62.70
48964;BME280;34776;48.180;16.420;2023-05-25T05:29:52;100326.31;;;15.62;62.25
48964;BME280;34776;48.180;16.420;2023-05-25T05:32:18;100329.19;;;15.74;61.75
48964;BME280;34776;48.180;16.420;2023-05-25T05:34:43;100320.06;;;15.76;61.31
48964;BME280;34776;48.180;16.420;2023-05-25T05:37:08;100327.03;;;15.79;61.17
48964;BME280;34776;48.180;16.420;2023-05-25T05:39:34;100337.38;;;15.85;61.32
48964;BME280;34776;48.180;16.420;2023-05-25T05:44:34;100340.81;;;15.87;60.88
48964;BME280;34776;48.180;16.420;2023-05-25T05:47:00;100335.44;;;15.87;61.20
48964;BME280;34776;48.180;16.420;2023-05-25T05:49:26;100338.03;;;15.89;60.66
48964;BME280;34776;48.180;16.420;2023-05-25T05:51:52;100343.09;;;15.93;60.86
48964;BME280;34776;48.180;16.420;2023-05-25T05:54:17;100346.44;;;15.97;61.05
48964;BME280;34776;48.180;16.420;2023-05-25T05:56:42;100355.09;;;16.15;61.00
48964;BME280;34776;48.180;16.420;2023-05-25T05:59:09;100352.44;;;16.15;60.79
48964;BME280;34776;48.180;16.420;2023-05-25T06:01:35;100354.69;;;16.21;60.59
48964;BME280;34776;48.180;16.420;2023-05-25T06:04:00;100351.19;;;16.33;60.79
48964;BME280;34776;48.180;16.420;2023-05-25T06:06:26;100355.72;;;16.46;60.35
48964;BME280;34776;48.180;16.420;2023-05-25T06:08:51;100361.25;;;16.57;59.84
48964;BME280;34776;48.180;16.420;2023-05-25T06:11:17;100355.88;;;16.57;59.38
48964;BME280;34776;48.180;16.420;2023-05-25T06:13:42;100362.88;;;16.72;59.55
48964;BME280;34776;48.180;16.420;2023-05-25T06:16:07;100360.56;;;16.80;59.32
48964;BME280;34776;48.180;16.420;2023-05-25T06:18:33;100360.91;;;16.89;58.88
48964;BME280;34776;48.180;16.420;2023-05-25T06:20:59;100364.56;;;17.26;58.55
48964;BME280;34776;48.180;16.420;2023-05-25T06:23:25;100361.59;;;19.35;54.30
48964;BME280;34776;48.180;16.420;2023-05-25T06:25:51;100360.16;;;21.97;47.55
48964;BME280;34776;48.180;16.420;2023-05-25T06:28:17;100355.97;;;22.43;46.35
48964;BME280;34776;48.180;16.420;2023-05-25T06:30:43;100357.56;;;24.25;43.79
48964;BME280;34776;48.180;16.420;2023-05-25T06:33:08;100358.13;;;24.82;41.02
48964;BME280;34776;48.180;16.420;2023-05-25T06:35:33;100355.41;;;25.26;40.25
48964;BME280;34776;48.180;16.420;2023-05-25T06:37:59;100351.75;;;26.45;38.90
48964;BME280;34776;48.180;16.420;2023-05-25T06:40:24;100357.94;;;28.08;35.97
48964;BME280;34776;48.180;16.420;2023-05-25T06:42:50;100346.50;;;28.82;34.95
48964;BME280;34776;48.180;16.420;2023-05-25T06:45:15;100351.44;;;29.02;34.44
48964;BME280;34776;48.180;16.420;2023-05-25T06:47:41;100352.13;;;29.71;33.44
48964;BME280;34776;48.180;16.420;2023-05-25T06:50:07;100349.28;;;30.16;31.94
48964;BME280;34776;48.180;16.420;2023-05-25T06:52:32;100356.44;;;30.53;31.49
48964;BME280;34776;48.180;16.420;2023-05-25T06:54:58;100352.63;;;29.82;31.49
48964;BME280;34776;48.180;16.420;2023-05-25T06:57:23;100353.31;;;29.24;32.82
48964;BME280;34776;48.180;16.420;2023-05-25T06:59:54;100364.34;;;30.05;31.63
48964;BME280;34776;48.180;16.420;2023-05-25T07:02:19;100350.81;;;30.40;31.85
48964;BME280;34776;48.180;16.420;2023-05-25T07:04:45;100348.22;;;31.66;29.75
48964;BME280;34776;48.180;16.420;2023-05-25T07:07:10;100340.47;;;31.76;28.94
48964;BME280;34776;48.180;16.420;2023-05-25T07:09:37;100333.06;;;32.39;28.08
48964;BME280;34776;48.180;16.420;2023-05-25T07:12:04;100339.41;;;32.39;28.30
48964;BME280;34776;48.180;16.420;2023-05-25T07:14:33;100347.09;;;32.64;27.30
48964;BME280;34776;48.180;16.420;2023-05-25T07:16:58;100342.00;;;32.54;27.63
48964;BME280;34776;48.180;16.420;2023-05-25T07:19:23;100339.91;;;32.96;27.05
48964;BME280;34776;48.180;16.420;2023-05-25T07:21:49;100338.13;;;33.68;26.29
48964;BME280;34776;48.180;16.420;2023-05-25T07:24:14;100342.56;;;33.69;26.55
48964;BME280;34776;48.180;16.420;2023-05-25T07:26:40;100341.88;;;33.81;25.74
48964;BME280;34776;48.180;16.420;2023-05-25T07:29:05;100338.63;;;33.19;26.43
48964;BME280;34776;48.180;16.420;2023-05-25T07:31:30;100345.94;;;33.71;25.38
48964;BME280;34776;48.180;16.420;2023-05-25T07:33:56;100344.81;;;33.86;24.78
48964;BME280;34776;48.180;16.420;2023-05-25T07:36:21;100346.19;;;33.50;25.58
48964;BME280;34776;48.180;16.420;2023-05-25T07:38:48;100354.03;;;34.11;24.71
48964;BME280;34776;48.180;16.420;2023-05-25T07:41:14;100360.56;;;33.72;24.85
48964;BME280;34776;48.180;16.420;2023-05-25T07:43:39;100350.09;;;33.09;25.31
48964;BME280;34776;48.180;16.420;2023-05-25T07:46:05;100350.94;;;32.76;25.69
48964;BME280;34776;48.180;16.420;2023-05-25T07:48:31;100349.59;;;33.45;25.48
48964;BME280;34776;48.180;16.420;2023-05-25T07:50:56;100351.03;;;34.20;24.30
48964;BME280;34776;48.180;16.420;2023-05-25T07:53:21;100350.31;;;34.63;23.88
48964;BME280;34776;48.180;16.420;2023-05-25T07:55:47;100354.66;;;34.52;23.50
48964;BME280;34776;48.180;16.420;2023-05-25T07:58:12;100353.66;;;34.78;23.20
48964;BME280;34776;48.180;16.420;2023-05-25T08:00:38;100353.81;;;34.83;23.53
48964;BME280;34776;48.180;16.420;2023-05-25T08:03:03;100353.38;;;35.05;23.15
48964;BME280;34776;48.180;16.420;2023-05-25T08:05:28;100365.19;;;34.62;23.46
48964;BME280;34776;48.180;16.420;2023-05-25T08:07:54;100352.28;;;34.87;23.11
48964;BME280;34776;48.180;16.420;2023-05-25T08:10:19;100348.66;;;35.92;22.00
48964;BME280;34776;48.180;16.420;2023-05-25T08:12:45;100347.84;;;36.52;21.31
48964;BME280;34776;48.180;16.420;2023-05-25T08:15:10;100351.19;;;35.57;21.92
48964;BME280;34776;48.180;16.420;2023-05-25T08:17:37;100348.13;;;35.28;22.01
48964;BME280;34776;48.180;16.420;2023-05-25T08:20:03;100353.97;;;34.56;22.71
48964;BME280;34776;48.180;16.420;2023-05-25T08:22:30;100366.19;;;34.42;22.85
48964;BME280;34776;48.180;16.420;2023-05-25T08:24:56;100356.16;;;35.05;22.33
48964;BME280;34776;48.180;16.420;2023-05-25T08:27:21;100351.09;;;35.02;22.53
48964;BME280;34776;48.180;16.420;2023-05-25T08:29:46;100361.31;;;34.76;22.72
48964;BME280;34776;48.180;16.420;2023-05-25T08:32:12;100351.78;;;34.97;22.40
48964;BME280;34776;48.180;16.420;2023-05-25T08:34:37;100350.88;;;35.47;22.27
48964;BME280;34776;48.180;16.420;2023-05-25T08:37:02;100362.84;;;36.75;21.17
48964;BME280;34776;48.180;16.420;2023-05-25T08:39:28;100344.56;;;36.13;20.82
48964;BME280;34776;48.180;16.420;2023-05-25T08:41:53;100345.72;;;35.50;21.52
48964;BME280;34776;48.180;16.420;2023-05-25T08:44:20;100343.50;;;35.22;22.00
48964;BME280;34776;48.180;16.420;2023-05-25T08:46:48;100344.22;;;34.86;22.02
48964;BME280;34776;48.180;16.420;2023-05-25T08:49:15;100351.59;;;34.67;22.23
48964;BME280;34776;48.180;16.420;2023-05-25T08:51:51;100356.72;;;34.63;22.10
48964;BME280;34776;48.180;16.420;2023-05-25T08:54:37;100351.31;;;35.00;21.99
48964;BME280;34776;48.180;16.420;2023-05-25T08:57:14;100356.44;;;35.65;21.16
48964;BME280;34776;48.180;16.420;2023-05-25T09:05:07;100357.75;;;35.81;21.63
48964;BME280;34776;48.180;16.420;2023-05-25T09:07:33;100357.63;;;36.25;21.07
48964;BME280;34776;48.180;16.420;2023-05-25T09:09:59;100340.94;;;36.13;21.11
48964;BME280;34776;48.180;16.420;2023-05-25T09:12:29;100345.19;;;35.23;21.84
48964;BME280;34776;48.180;16.420;2023-05-25T09:14:56;100359.16;;;35.28;22.10
48964;BME280;34776;48.180;16.420;2023-05-25T09:17:21;100360.25;;;35.46;21.77
48964;BME280;34776;48.180;16.420;2023-05-25T09:19:48;100350.22;;;34.19;23.11
48964;BME280;34776;48.180;16.420;2023-05-25T09:22:14;100363.44;;;32.04;25.52
48964;BME280;34776;48.180;16.420;2023-05-25T09:24:40;100362.28;;;29.78;28.11
48964;BME280;34776;48.180;16.420;2023-05-25T09:27:12;100358.06;;;28.15;30.47
48964;BME280;34776;48.180;16.420;2023-05-25T09:29:41;100357.56;;;27.08;32.47
48964;BME280;34776;48.180;16.420;2023-05-25T09:32:06;100372.84;;;26.19;33.69
48964;BME280;34776;48.180;16.420;2023-05-25T09:34:32;100371.09;;;25.33;35.04
48964;BME280;34776;48.180;16.420;2023-05-25T09:37:10;100366.78;;;24.86;35.90
48964;BME280;34776;48.180;16.420;2023-05-25T09:42:05;100365.63;;;24.35;36.92
48964;BME280;34776;48.180;16.420;2023-05-25T09:44:30;100362.03;;;24.16;37.76
48964;BME280;34776;48.180;16.420;2023-05-25T09:46:56;100366.69;;;24.06;37.97
48964;BME280;34776;48.180;16.420;2023-05-25T09:49:21;100364.75;;;23.98;38.11
48964;BME280;34776;48.180;16.420;2023-05-25T09:51:48;100362.53;;;23.74;38.05
48964;BME280;34776;48.180;16.420;2023-05-25T09:54:15;100369.13;;;23.71;38.16
48964;BME280;34776;48.180;16.420;2023-05-25T09:56:41;100361.97;;;23.70;38.64
48964;BME280;34776;48.180;16.420;2023-05-25T09:59:06;100362.31;;;23.67;38.93
48964;BME280;34776;48.180;16.420;2023-05-25T10:01:34;100364.69;;;23.70;38.94
48964;BME280;34776;48.180;16.420;2023-05-25T10:04:00;100364.09;;;23.49;39.24
48964;BME280;34776;48.180;16.420;2023-05-25T10:06:26;100371.00;;;23.34;39.66
48964;BME280;34776;48.180;16.420;2023-05-25T10:08:54;100364.44;;;23.26;40.06
48964;BME280;34776;48.180;16.420;2023-05-25T10:11:21;100359.00;;;23.36;39.82
48964;BME280;34776;48.180;16.420;2023-05-25T10:14:06;100356.16;;;23.38;40.05
48964;BME280;34776;48.180;16.420;2023-05-25T10:16:33;100350.34;;;23.60;40.29
48964;BME280;34776;48.180;16.420;2023-05-25T10:19:30;100350.63;;;23.57;40.76
48964;BME280;34776;48.180;16.420;2023-05-25T10:22:14;100359.19;;;23.62;41.11
48964;BME280;34776;48.180;16.420;2023-05-25T10:27:19;100354.44;;;23.64;40.06
48964;BME280;34776;48.180;16.420;2023-05-25T10:29:47;100353.28;;;23.39;40.33
48964;BME280;34776;48.180;16.420;2023-05-25T10:32:17;100348.41;;;23.43;40.87
48964;BME280;34776;48.180;16.420;2023-05-25T10:34:42;100351.22;;;23.51;40.68
48964;BME280;34776;48.180;16.420;2023-05-25T10:37:08;100355.16;;;23.66;40.64
48964;BME280;34776;48.180;16.420;2023-05-25T10:39:35;100338.97;;;23.47;40.85
48964;BME280;34776;48.180;16.420;2023-05-25T10:42:00;100333.53;;;23.47;41.17
48964;BME280;34776;48.180;16.420;2023-05-25T10:44:28;100335.88;;;23.42;40.90
48964;BME280;34776;48.180;16.420;2023-05-25T10:46:54;100342.00;;;23.71;41.07
48964;BME280;34776;48.180;16.420;2023-05-25T10:51:58;100343.69;;;23.73;41.12
48964;BME280;34776;48.180;16.420;2023-05-25T10:54:32;100339.78;;;23.57;40.96
48964;BME280;34776;48.180;16.420;2023-05-25T11:16:19;100320.44;;;23.80;40.48
48964;BME280;34776;48.180;16.420;2023-05-25T11:18:53;100313.19;;;23.98;40.29
48964;BME280;34776;48.180;16.420;2023-05-25T11:42:11;100282.00;;;24.82;38.91
48964;BME280;34776;48.180;16.420;2023-05-25T11:44:37;100282.94;;;24.73;39.10
48964;BME280;34776;48.180;16.420;2023-05-25T11:47:08;100276.06;;;24.43;39.15
48964;BME280;34776;48.180;16.420;2023-05-25T11:49:39;100266.47;;;24.48;39.26
48964;BME280;34776;48.180;16.420;2023-05-25T11:52:09;100277.78;;;24.88;39.35
48964;BME280;34776;48.180;16.420;2023-05-25T11:54:34;100276.13;;;24.69;39.05
48964;BME280;34776;48.180;16.420;2023-05-25T11:57:00;100276.31;;;24.67;39.36
48964;BME280;34776;48.180;16.420;2023-05-25T11:59:28;100263.69;;;24.84;39.25
48964;BME280;34776;48.180;16.420;2023-05-25T12:02:01;100267.81;;;24.97;39.55
48964;BME280;34776;48.180;16.420;2023-05-25T12:04:27;100260.56;;;25.05;38.80
48964;BME280;34776;48.180;16.420;2023-05-25T12:07:05;100253.16;;;24.89;39.07
48964;BME280;34776;48.180;16.420;2023-05-25T12:09:31;100246.34;;;24.85;39.28
48964;BME280;34776;48.180;16.420;2023-05-25T12:11:57;100238.34;;;24.84;39.41
48964;BME280;34776;48.180;16.420;2023-05-25T12:14:23;100250.84;;;25.03;39.38
48964;BME280;34776;48.180;16.420;2023-05-25T12:16:49;100258.75;;;25.14;39.08
48964;BME280;34776;48.180;16.420;2023-05-25T12:19:15;100251.38;;;25.06;39.25
48964;BME280;34776;48.180;16.420;2023-05-25T12:21:41;100251.19;;;25.00;39.39
48964;BME280;34776;48.180;16.420;2023-05-25T12:24:09;100240.72;;;25.13;38.88
48964;BME280;34776;48.180;16.420;2023-05-25T12:26:49;100248.38;;;25.18;39.55
48964;BME280;34776;48.180;16.420;2023-05-25T12:29:16;100243.91;;;25.08;38.99
48964;BME280;34776;48.180;16.420;2023-05-25T12:31:41;100241.81;;;25.20;39.12
48964;BME280;34776;48.180;16.420;2023-05-25T12:34:08;100238.50;;;25.51;38.70
48964;BME280;34776;48.180;16.420;2023-05-25T12:36:53;100245.25;;;25.30;38.51
48964;BME280;34776;48.180;16.420;2023-05-25T12:41:54;100243.09;;;24.82;39.58
48964;BME280;34776;48.180;16.420;2023-05-25T12:44:25;100240.31;;;25.00;39.56
48964;BME280;34776;48.180;16.420;2023-05-25T12:46:52;100233.69;;;25.02;39.44
48964;BME280;34776;48.180;16.420;2023-05-25T12:49:32;100237.09;;;25.04;39.16
48964;BME280;34776;48.180;16.420;2023-05-25T12:51:59;100239.97;;;25.29;39.10
48964;BME280;34776;48.180;16.420;2023-05-25T12:54:44;100237.50;;;25.18;38.99
48964;BME280;34776;48.180;16.420;2023-05-25T12:57:33;100232.81;;;24.94;39.21
48964;BME280;34776;48.180;16.420;2023-05-25T13:00:02;100235.19;;;24.97;39.08
48964;BME280;34776;48.180;16.420;2023-05-25T13:10:14;100206.06;;;25.74;38.82
48964;BME280;34776;48.180;16.420;2023-05-25T13:25:37;100190.53;;;25.42;38.64
48964;BME280;34776;48.180;16.420;2023-05-25T13:28:03;100197.88;;;25.66;38.98
48964;BME280;34776;48.180;16.420;2023-05-25T13:30:30;100196.72;;;25.60;38.79
48964;BME280;34776;48.180;16.420;2023-05-25T13:32:55;100189.88;;;25.48;38.89
48964;BME280;34776;48.180;16.420;2023-05-25T13:46:36;100183.41;;;25.49;39.28
48964;BME280;34776;48.180;16.420;2023-05-25T13:49:02;100188.69;;;25.50;39.28
48964;BME280;34776;48.180;16.420;2023-05-25T13:51:28;100181.34;;;25.43;39.51
48964;BME280;34776;48.180;16.420;2023-05-25T14:01:39;100185.22;;;26.07;38.68
48964;BME280;34776;48.180;16.420;2023-05-25T14:04:04;100184.97;;;25.68;39.08
48964;BME280;34776;48.180;16.420;2023-05-25T14:06:30;100187.34;;;25.63;39.13
48964;BME280;34776;48.180;16.420;2023-05-25T14:08:56;100183.47;;;25.73;39.14
48964;BME280;34776;48.180;16.420;2023-05-25T14:11:23;100193.00;;;25.86;39.07
48964;BME280;34776;48.180;16.420;2023-05-25T14:19:05;100181.41;;;25.76;39.18
48964;BME280;34776;48.180;16.420;2023-05-25T14:21:31;100186.69;;;25.69;38.85
48964;BME280;34776;48.180;16.420;2023-05-25T14:24:04;100187.03;;;25.58;38.92
48964;BME280;34776;48.180;16.420;2023-05-25T14:29:30;100181.75;;;25.64;39.12
48964;BME280;34776;48.180;16.420;2023-05-25T14:31:58;100174.75;;;25.62;39.29